MOL Paramount — 3ECH9 — position and weather

sailwx.info

Track history (hours):
 
Tides and Currents Weather Stations Pressure Air Temp Water Temp Dewpoint Dewpoint Depression Visibility Wind Speed Wind Dir Waves Ship Positions

MOL Paramount

Last reported at 2014-Oct-31 04:26 UTC. Time now 2014-Nov-01 05:38 UTC.
Position N 35°57' W 009°48'.

Length 293 m; draft 12.3 m.

Type: Cargo ship. MMSI: 371519000.

Date/timePositionNaut miles runAvg speedWind from/ knotsBaromVisibWave heightAir tempDewpointWater temp
2014-Oct-31 04:26N 35°57' W 009°48'1818.2
2014-Oct-31 03:25N 35°58' W 009°26'11519.5
2014-Oct-30 21:31N 35°57' W 007°04'1920.1
2014-Oct-30 20:33N 35°57' W 006°40'5819.3
2014-Oct-30 17:33N 35°60' W 005°28'1919.1
2014-Oct-30 16:33N 36°03' W 005°05'25919.5
2014-Oct-30 03:19N 36°44' E 000°12'1619.6
2014-Oct-30 02:31N 36°47' E 000°31'  
2014-Oct-26 15:05N 31°38' E 032°07'1019.6
2014-Oct-26 14:33N 31°31' E 032°16'1512.3
2014-Oct-26 13:19N 31°17' E 032°22'7 9.4
2014-Oct-26 12:33N 31°10' E 032°20'  
Track history (hours):
 
Tides and Currents Weather Stations Pressure Air Temp Water Temp Dewpoint Dewpoint Depression Visibility Wind Speed Wind Dir Waves Ship Positions

MOL Paramount

Last reported at 2014-Oct-31 04:26 UTC. Time now 2014-Nov-01 05:38 UTC.
Position N 35°57' W 009°48'.

Length 293 m; draft 12.3 m.

Type: Cargo ship. MMSI: 371519000.

Date/timePositionNaut miles runAvg speedWind from/ knotsBaromVisibWave heightAir tempDewpointWater temp
2014-Oct-31 04:26N 35°57' W 009°48'1818.2
2014-Oct-31 03:25N 35°58' W 009°26'11519.5
2014-Oct-30 21:31N 35°57' W 007°04'1920.1
2014-Oct-30 20:33N 35°57' W 006°40'5819.3
2014-Oct-30 17:33N 35°60' W 005°28'1919.1
2014-Oct-30 16:33N 36°03' W 005°05'25919.5
2014-Oct-30 03:19N 36°44' E 000°12'1619.6
2014-Oct-30 02:31N 36°47' E 000°31'  
2014-Oct-26 15:05N 31°38' E 032°07'1019.6
2014-Oct-26 14:33N 31°31' E 032°16'1512.3
2014-Oct-26 13:19N 31°17' E 032°22'7 9.4
2014-Oct-26 12:33N 31°10' E 032°20'  

Dump ship's entire track history